Time;durP1;ratioP1;P1;durP2;ratioP2;P2;SDS_P1;SDS_P2;PMS_P1;PMS_P2;Temp;Humidity;BMP_temperature;BMP_pressure;BME280_temperature;BME280_humidity;BME280_pressure;Samples;Min_cycle;Max_cycle;Signal;HPM_P1;HPM_P2
2023/11/21 00:00:38;;;;;;;14.57;8.00;;;;;;;24.94;37.84;99165.13;4346516;33;34082;-54
2023/11/21 00:03:06;;;;;;;14.57;8.15;;;;;;;24.92;37.83;99162.66;4345922;33;33840;-57
2023/11/21 00:05:35;;;;;;;13.80;8.02;;;;;;;24.92;37.80;99161.84;4346495;33;35190;-57
2023/11/21 00:08:02;;;;;;;18.05;9.02;;;;;;;24.90;37.87;99162.09;4346233;33;34667;-56
2023/11/21 00:10:30;;;;;;;17.00;8.52;;;;;;;24.90;37.85;99170.28;4346501;33;34448;-58
2023/11/21 00:12:58;;;;;;;12.40;7.85;;;;;;;24.89;37.88;99165.06;4346467;33;33473;-56
2023/11/21 00:15:26;;;;;;;14.80;8.60;;;;;;;24.89;37.83;99156.88;4346368;33;34887;-54
2023/11/21 00:17:54;;;;;;;14.45;8.13;;;;;;;24.87;37.85;99159.84;4346338;33;34972;-54
2023/11/21 00:20:21;;;;;;;11.35;8.02;;;;;;;24.87;37.91;99153.56;4346388;33;34335;-57
2023/11/21 00:22:49;;;;;;;13.43;8.32;;;;;;;24.86;37.95;99163.66;4346118;33;33953;-55
2023/11/21 00:25:17;;;;;;;11.18;8.00;;;;;;;24.86;37.95;99162.84;4346251;33;34011;-54
2023/11/21 00:27:45;;;;;;;13.75;8.93;;;;;;;24.85;37.92;99181.09;4346254;33;35040;-57
2023/11/21 00:30:13;;;;;;;13.68;8.40;;;;;;;24.85;37.95;99180.28;4358124;32;34458;-56
2023/11/21 00:32:40;;;;;;;11.32;7.12;;;;;;;24.85;37.94;99188.47;4360263;32;34492;-57
2023/11/21 00:35:08;;;;;;;11.48;7.62;;;;;;;24.84;38.02;99186.81;4360420;32;33847;-53
2023/11/21 00:37:36;;;;;;;14.05;8.65;;;;;;;24.83;37.99;99187.91;4360450;32;34577;-55
2023/11/21 00:40:06;;;;;;;15.25;8.60;;;;;;;24.83;38.00;99190.63;4360959;32;33328;-55
2023/11/21 00:42:34;;;;;;;12.27;7.55;;;;;;;24.82;37.97;99194.44;4360839;32;33866;-56
2023/11/21 00:45:01;;;;;;;12.37;7.87;;;;;;;24.81;38.01;99190.88;4361152;32;33776;-56
2023/11/21 00:47:30;;;;;;;11.82;8.23;;;;;;;24.82;38.05;99202.63;4361212;32;34087;-55
2023/11/21 00:49:58;;;;;;;12.32;7.65;;;;;;;24.82;38.15;99205.34;4360555;32;34295;-57
2023/11/21 00:52:25;;;;;;;11.45;7.95;;;;;;;24.81;38.09;99200.97;4360704;32;34543;-54
2023/11/21 00:54:53;;;;;;;12.20;7.28;;;;;;;24.79;38.14;99193.03;4360725;32;33826;-57
2023/11/21 00:57:21;;;;;;;14.05;7.85;;;;;;;24.80;38.21;99199.31;4360774;32;34373;-57
2023/11/21 00:59:48;;;;;;;12.40;7.03;;;;;;;24.79;38.30;99189.47;4360718;32;33581;-55
2023/11/21 01:02:16;;;;;;;12.15;7.57;;;;;;;24.77;38.32;99192.47;4360641;32;34694;-56
2023/11/21 01:04:44;;;;;;;11.65;8.10;;;;;;;24.76;38.25;99179.91;4360387;32;35008;-59
2023/11/21 01:07:11;;;;;;;13.70;8.10;;;;;;;24.76;38.29;99187.22;4360570;32;34592;-56
2023/11/21 01:09:39;;;;;;;12.10;7.55;;;;;;;24.75;38.26;99186.41;4360569;32;33590;-59
2023/11/21 01:12:06;;;;;;;12.40;7.90;;;;;;;24.74;38.36;99186.66;4360360;32;33873;-54
2023/11/21 01:14:35;;;;;;;11.35;7.57;;;;;;;24.73;38.47;99171.38;4360822;32;33621;-53
2023/11/21 01:17:04;;;;;;;11.60;7.50;;;;;;;24.73;38.46;99174.09;4362684;32;34228;-57
2023/11/21 01:19:32;;;;;;;12.05;8.10;;;;;;;24.70;38.43;99153.59;4362449;32;34543;-58
2023/11/21 01:22:00;;;;;;;15.13;6.80;;;;;;;24.71;38.44;99171.59;4362649;32;34751;-57
2023/11/21 01:24:27;;;;;;;12.25;7.28;;;;;;;24.70;38.43;99167.25;4362648;32;34668;-58
2023/11/21 01:26:55;;;;;;;11.63;7.22;;;;;;;24.69;38.49;99173.78;4362533;32;34025;-58
2023/11/21 01:29:23;;;;;;;12.60;7.37;;;;;;;24.69;38.50;99162.87;4362492;32;33511;-59
2023/11/21 01:31:51;;;;;;;13.05;7.90;;;;;;;24.69;38.45;99169.13;4362798;32;34066;-57
2023/11/21 01:34:19;;;;;;;13.30;7.40;;;;;;;24.68;38.42;99170.22;4354200;32;34918;-56
2023/11/21 01:36:46;;;;;;;12.10;7.57;;;;;;;24.67;38.43;99170.50;4347980;33;33835;-55
2023/11/21 01:39:16;;;;;;;11.18;7.30;;;;;;;24.67;38.44;99171.31;4347728;33;33336;-58
2023/11/21 01:41:46;;;;;;;11.65;7.30;;;;;;;24.67;38.36;99165.03;4347381;33;34738;-56
2023/11/21 01:44:14;;;;;;;10.00;7.43;;;;;;;24.68;38.40;99158.50;4347582;33;34920;-55
2023/11/21 01:46:41;;;;;;;9.55;6.65;;;;;;;24.66;38.42;99161.44;4347665;33;34848;-54
2023/11/21 01:49:12;;;;;;;9.55;6.70;;;;;;;24.66;38.46;99158.72;4347416;33;33538;-57
2023/11/21 01:51:43;;;;;;;9.60;6.72;;;;;;;24.66;38.42;99157.91;4347642;33;34038;-54
2023/11/21 01:54:11;;;;;;;10.93;7.20;;;;;;;24.64;38.46;99158.16;4333992;33;33884;-56
2023/11/21 01:56:47;;;;;;;9.32;6.32;;;;;;;24.64;38.46;99151.88;4347623;33;34665;-55
2023/11/21 01:59:23;;;;;;;12.93;7.30;;;;;;;24.63;38.49;99151.06;4334253;33;33434;-58
2023/11/21 02:01:51;;;;;;;13.27;7.45;;;;;;;24.64;38.47;99144.53;4347493;33;33694;-55
2023/11/21 02:04:20;;;;;;;9.68;7.00;;;;;;;24.64;38.42;99136.34;4347579;33;34171;-59
2023/11/21 02:06:50;;;;;;;15.30;7.07;;;;;;;24.62;38.46;99133.03;4347358;33;34663;-57
2023/11/21 02:09:25;;;;;;;11.02;6.97;;;;;;;24.62;38.44;99130.31;4334539;33;34631;-58
2023/11/21 02:11:58;;;;;;;12.57;6.97;;;;;;;24.62;38.55;99130.31;4347414;33;33655;-53
2023/11/21 02:14:27;;;;;;;10.50;6.72;;;;;;;24.61;38.51;99134.09;4347386;33;34535;-57
2023/11/21 02:16:57;;;;;;;9.23;6.07;;;;;;;24.60;38.49;99128.91;4347404;33;35059;-58
2023/11/21 02:19:29;;;;;;;10.18;6.50;;;;;;;24.60;38.48;99139.81;4347356;33;34653;-60
2023/11/21 02:22:06;;;;;;;14.27;6.25;;;;;;;24.59;38.51;99127.25;4347488;33;33714;-57
2023/11/21 02:24:34;;;;;;;10.82;6.47;;;;;;;24.58;38.58;99126.44;4347661;33;34144;-57
2023/11/21 02:27:01;;;;;;;10.57;6.93;;;;;;;24.57;38.52;99115.75;4347122;33;34814;-57
2023/11/21 02:29:29;;;;;;;9.73;6.65;;;;;;;24.57;38.55;99121.22;4347242;33;33562;-57
2023/11/21 02:31:57;;;;;;;8.77;6.53;;;;;;;24.56;38.54;99108.66;4347311;33;34016;-52
2023/11/21 02:34:25;;;;;;;9.88;6.80;;;;;;;24.55;38.49;99113.28;4355836;32;34039;-56
2023/11/21 02:36:53;;;;;;;14.20;6.97;;;;;;;24.55;38.51;99101.56;4362498;32;34086;-54
2023/11/21 02:39:24;;;;;;;10.85;6.75;;;;;;;24.54;38.54;99110.81;4362196;32;34162;-58
2023/11/21 02:41:52;;;;;;;11.48;6.50;;;;;;;24.54;38.70;99110.81;4361997;32;34163;-55
2023/11/21 02:44:20;;;;;;;10.45;6.35;;;;;;;24.53;38.77;99107.28;4362049;32;34804;-59
2023/11/21 02:46:47;;;;;;;9.45;6.00;;;;;;;24.54;38.65;99105.38;4362040;32;35035;-56
2023/11/21 02:49:15;;;;;;;11.40;6.45;;;;;;;24.52;38.75;99108.31;4362336;32;33824;-56
2023/11/21 02:51:43;;;;;;;10.68;6.68;;;;;;;24.53;38.76;99103.69;4362061;32;33999;-57
2023/11/21 02:54:11;;;;;;;10.65;6.45;;;;;;;24.52;38.76;99105.59;4361838;32;34151;-57
2023/11/21 02:56:39;;;;;;;11.43;6.80;;;;;;;24.53;38.67;99100.97;4362061;32;34933;-53
2023/11/21 02:59:07;;;;;;;9.35;5.95;;;;;;;24.51;38.75;99109.41;4361944;32;33626;-57
2023/11/21 03:01:34;;;;;;;9.90;6.18;;;;;;;24.50;38.77;99099.59;4361805;32;34596;-55
2023/11/21 03:04:02;;;;;;;8.98;6.28;;;;;;;24.50;38.77;99102.31;4361959;32;34853;-58
2023/11/21 03:06:30;;;;;;;13.52;6.45;;;;;;;24.49;38.80;99100.66;4361951;32;34834;-57
2023/11/21 03:08:58;;;;;;;9.57;6.45;;;;;;;24.49;38.78;99089.75;4361837;32;33922;-59
2023/11/21 03:11:25;;;;;;;10.02;6.68;;;;;;;24.48;38.81;99090.84;4361750;32;34495;-59
2023/11/21 03:13:53;;;;;;;13.45;6.25;;;;;;;24.49;38.83;99089.75;4361923;32;33827;-57
2023/11/21 03:16:20;;;;;;;9.88;6.78;;;;;;;24.47;38.83;99091.88;4361764;32;34767;-59
2023/11/21 03:18:48;;;;;;;10.77;6.03;;;;;;;24.48;38.73;99079.06;4362136;32;33742;-55
2023/11/21 03:21:16;;;;;;;8.75;6.28;;;;;;;24.47;38.80;99077.44;4362078;32;33995;-58
2023/11/21 03:23:43;;;;;;;11.12;5.62;;;;;;;24.47;38.73;99077.44;4361929;32;34125;-54
2023/11/21 03:26:14;;;;;;;8.57;6.12;;;;;;;24.47;38.80;99077.44;4362083;32;34509;-57
2023/11/21 03:28:41;;;;;;;10.02;6.43;;;;;;;24.45;38.96;99068.69;4361933;32;33354;-56
2023/11/21 03:31:09;;;;;;;12.13;6.60;;;;;;;24.44;38.96;99054.22;4361526;32;33867;-59
2023/11/21 03:33:36;;;;;;;8.13;5.78;;;;;;;24.43;38.98;99053.41;4357946;32;34838;-58
2023/11/21 03:36:04;;;;;;;9.55;6.37;;;;;;;24.44;38.93;99051.50;4347199;33;34168;-57
2023/11/21 03:38:32;;;;;;;9.82;5.75;;;;;;;24.43;38.92;99041.66;4345745;33;34510;-56
2023/11/21 03:40:59;;;;;;;9.60;6.18;;;;;;;24.43;38.88;99037.06;4346772;33;33942;-56
2023/11/21 03:43:27;;;;;;;9.02;6.57;;;;;;;24.43;38.89;99041.66;4346853;33;33589;-57
2023/11/21 03:45:55;;;;;;;9.57;6.57;;;;;;;24.42;38.87;99050.91;4346863;33;34222;-56
2023/11/21 03:48:23;;;;;;;10.40;6.15;;;;;;;24.40;38.90;99053.91;4346779;33;34500;-60
2023/11/21 03:50:50;;;;;;;11.05;6.12;;;;;;;24.40;38.92;99061.25;4347046;33;34031;-52
2023/11/21 03:53:18;;;;;;;8.93;6.12;;;;;;;24.39;38.93;99067.81;4346464;33;35020;-58
2023/11/21 03:55:46;;;;;;;8.98;6.00;;;;;;;24.39;38.89;99060.44;4346653;33;33966;-57
2023/11/21 03:58:13;;;;;;;11.93;6.40;;;;;;;24.39;38.89;99067.81;4346728;33;34121;-57
2023/11/21 04:00:42;;;;;;;11.82;5.60;;;;;;;24.38;38.91;99072.41;4346724;33;34808;-54
2023/11/21 04:03:10;;;;;;;8.57;5.93;;;;;;;24.36;38.99;99071.84;4346630;33;34694;-57
2023/11/21 04:05:37;;;;;;;8.63;6.18;;;;;;;24.37;38.92;99075.38;4346573;33;34179;-54
2023/11/21 04:08:05;;;;;;;10.25;6.07;;;;;;;24.36;38.90;99080.00;4346370;33;33701;-58
2023/11/21 04:10:32;;;;;;;9.10;6.07;;;;;;;24.35;38.92;99081.06;4346711;33;33860;-57
2023/11/21 04:13:00;;;;;;;8.93;6.15;;;;;;;24.35;38.95;99075.62;4346494;33;34169;-50
2023/11/21 04:15:27;;;;;;;10.07;5.87;;;;;;;24.34;38.98;99075.84;4346248;33;34040;-55
2023/11/21 04:17:56;;;;;;;7.95;5.85;;;;;;;24.32;39.01;99087.00;4346426;33;33643;-58
2023/11/21 04:20:24;;;;;;;9.88;5.87;;;;;;;24.32;39.00;99092.47;4346326;33;34107;-52
2023/11/21 04:22:51;;;;;;;10.68;6.00;;;;;;;24.32;39.05;99091.63;4346319;33;34834;-57
2023/11/21 04:25:19;;;;;;;10.32;5.37;;;;;;;24.32;39.04;99091.63;4346294;33;35076;-57
2023/11/21 04:27:47;;;;;;;9.20;5.95;;;;;;;24.31;39.05;99093.53;4346309;33;34512;-57
2023/11/21 04:30:15;;;;;;;9.65;5.70;;;;;;;24.31;39.12;99090.81;4346335;33;33938;-51
2023/11/21 04:32:42;;;;;;;12.52;6.30;;;;;;;24.30;39.17;99089.16;4346186;33;33654;-56
2023/11/21 04:35:10;;;;;;;10.73;6.07;;;;;;;24.31;39.12;99084.53;4359412;32;35128;-55
2023/11/21 04:37:37;;;;;;;11.45;5.50;;;;;;;24.30;39.16;99091.91;4360980;32;33449;-58
2023/11/21 04:40:06;;;;;;;9.23;5.43;;;;;;;24.30;39.13;99096.53;4360968;32;33944;-55
2023/11/21 04:42:35;;;;;;;9.43;5.62;;;;;;;24.30;39.16;99105.53;4360788;32;34583;-54
2023/11/21 04:45:08;;;;;;;8.02;5.22;;;;;;;24.29;39.14;99100.31;4360828;32;34981;-54
2023/11/21 04:47:36;;;;;;;7.78;5.70;;;;;;;24.28;39.15;99109.56;4360932;32;33635;-51
2023/11/21 04:50:04;;;;;;;9.98;5.50;;;;;;;24.29;39.14;99119.38;4362206;32;33743;-58
2023/11/21 04:52:33;;;;;;;8.05;5.47;;;;;;;24.29;39.23;99119.38;4362798;32;34800;-55
2023/11/21 04:55:02;;;;;;;9.87;5.73;;;;;;;24.29;39.10;99120.22;4362873;32;34961;-57
2023/11/21 04:57:30;;;;;;;9.02;5.60;;;;;;;24.29;39.12;99117.47;4362966;32;33550;-54
2023/11/21 04:59:58;;;;;;;8.25;5.07;;;;;;;24.29;39.14;99122.13;4363070;32;33583;-52
2023/11/21 05:02:25;;;;;;;9.82;5.65;;;;;;;24.28;39.24;99123.19;4362772;32;33837;-58
2023/11/21 05:05:05;;;;;;;9.10;5.68;;;;;;;24.28;39.21;99124.03;4362688;32;34126;-57
2023/11/21 05:07:35;;;;;;;10.55;5.55;;;;;;;24.28;39.22;99131.38;4362719;32;33671;-57
2023/11/21 05:10:10;;;;;;;8.10;5.10;;;;;;;24.28;39.14;99131.38;4362540;32;34042;-59
2023/11/21 05:12:39;;;;;;;7.62;4.93;;;;;;;24.27;39.16;99132.44;4362705;32;34067;-57
2023/11/21 05:15:09;;;;;;;8.90;5.32;;;;;;;24.27;39.19;99136.00;4362705;32;34893;-57
2023/11/21 05:17:39;;;;;;;9.82;5.68;;;;;;;24.26;39.20;99126.19;4362567;32;33637;-55
2023/11/21 05:20:09;;;;;;;8.70;5.20;;;;;;;24.26;39.26;99119.91;4362641;32;34515;-53
2023/11/21 05:22:37;;;;;;;10.93;5.25;;;;;;;24.26;39.23;99119.91;4362461;32;34940;-57
2023/11/21 05:25:05;;;;;;;8.10;5.65;;;;;;;24.26;39.22;99125.34;4362806;32;34866;-56
2023/11/21 05:27:33;;;;;;;10.68;5.70;;;;;;;24.24;39.24;99116.59;4362690;32;33428;-58
2023/11/21 05:30:02;;;;;;;7.57;4.85;;;;;;;24.23;39.30;99117.66;4362428;32;34034;-55
2023/11/21 05:32:30;;;;;;;6.93;5.03;;;;;;;24.22;39.32;99126.91;4362593;32;34080;-55
2023/11/21 05:34:58;;;;;;;8.82;5.60;;;;;;;24.23;39.29;99123.13;4350416;32;33727;-57
2023/11/21 05:37:26;;;;;;;7.87;5.57;;;;;;;24.21;39.32;99122.56;4347723;33;33823;-58
2023/11/21 05:39:57;;;;;;;8.35;5.03;;;;;;;24.21;39.30;99117.09;4347653;33;34839;-57
2023/11/21 05:42:25;;;;;;;8.57;5.62;;;;;;;24.21;39.27;99119.81;4347521;33;34455;-59
2023/11/21 05:44:52;;;;;;;8.00;4.97;;;;;;;24.19;39.43;99117.31;4347526;33;34355;-58
2023/11/21 05:47:21;;;;;;;8.57;4.53;;;;;;;24.18;39.41;99121.97;4347693;33;34289;-59
2023/11/21 05:49:51;;;;;;;11.50;4.97;;;;;;;24.18;39.41;99143.75;4347587;33;34711;-59
2023/11/21 05:52:19;;;;;;;7.62;4.62;;;;;;;24.19;39.34;99139.13;4347330;33;33749;-59
2023/11/21 05:54:47;;;;;;;8.23;5.10;;;;;;;24.19;39.37;99148.13;4347580;33;34536;-57
2023/11/21 05:57:14;;;;;;;8.27;4.87;;;;;;;24.18;39.35;99141.03;4347614;33;33412;-59
2023/11/21 05:59:43;;;;;;;12.20;5.55;;;;;;;24.18;39.34;99142.94;4347287;33;33874;-59
2023/11/21 06:02:10;;;;;;;8.05;4.75;;;;;;;24.17;39.41;99144.84;4347187;33;34055;-59
2023/11/21 06:04:38;;;;;;;8.45;5.15;;;;;;;24.17;39.41;99149.47;4347497;33;33998;-57
2023/11/21 06:07:07;;;;;;;9.95;4.60;;;;;;;24.17;39.44;99152.19;4347403;33;33595;-60
2023/11/21 06:09:34;;;;;;;9.30;4.85;;;;;;;24.16;39.43;99150.56;4347512;33;33754;-59
2023/11/21 06:12:03;;;;;;;9.75;5.30;;;;;;;24.17;39.40;99163.09;4347300;33;34162;-59
2023/11/21 06:14:30;;;;;;;7.90;5.15;;;;;;;24.15;39.41;99160.63;4347512;33;34097;-59
2023/11/21 06:16:58;;;;;;;9.98;5.25;;;;;;;24.14;39.43;99167.12;4347469;33;32953;-58
2023/11/21 06:19:25;;;;;;;7.05;4.72;;;;;;;24.14;39.50;99172.59;4347249;33;33981;-59
2023/11/21 06:21:53;;;;;;;7.45;4.78;;;;;;;24.14;39.45;99177.22;4347443;33;34138;-59
2023/11/21 06:24:21;;;;;;;8.65;4.85;;;;;;;24.12;39.42;99176.66;4347591;33;35288;-60
2023/11/21 06:26:48;;;;;;;8.63;5.30;;;;;;;24.13;39.44;99191.91;4347218;33;33751;-55
2023/11/21 06:29:16;;;;;;;7.15;5.22;;;;;;;24.12;39.48;99195.72;4347360;33;33842;-57
2023/11/21 06:31:43;;;;;;;7.25;4.72;;;;;;;24.12;39.48;99199.28;4347335;33;33851;-59
2023/11/21 06:34:12;;;;;;;9.95;5.25;;;;;;;24.12;39.42;99201.19;4354476;32;34939;-58
2023/11/21 06:36:39;;;;;;;10.02;4.75;;;;;;;24.12;39.50;99206.63;4362157;32;33762;-59
2023/11/21 06:39:07;;;;;;;8.93;5.20;;;;;;;24.11;39.50;99211.25;4362417;32;34104;-59
2023/11/21 06:41:38;;;;;;;9.00;4.85;;;;;;;24.11;39.51;99213.97;4361817;32;34987;-57
2023/11/21 06:44:06;;;;;;;8.52;5.00;;;;;;;24.12;39.57;99209.34;4362014;32;35041;-58
2023/11/21 06:46:33;;;;;;;7.32;4.65;;;;;;;24.11;39.56;99226.78;4362383;32;33678;-58
2023/11/21 06:49:01;;;;;;;9.07;5.00;;;;;;;24.10;39.55;99220.47;4370139;32;34638;-57
2023/11/21 06:51:29;;;;;;;9.02;5.10;;;;;;;24.10;39.58;99225.94;4376827;32;34064;-56
2023/11/21 06:53:56;;;;;;;8.77;5.22;;;;;;;24.09;39.58;99218.00;4376951;32;34431;-57
2023/11/21 06:56:24;;;;;;;9.13;5.10;;;;;;;24.10;39.60;99220.47;4376883;32;34670;-61
2023/11/21 06:58:53;;;;;;;13.20;5.25;;;;;;;24.12;38.02;99220.25;4376957;32;34690;-63
2023/11/21 07:01:21;;;;;;;14.00;5.28;;;;;;;24.04;35.50;99223.37;4377176;32;34130;-63
2023/11/21 07:03:49;;;;;;;8.23;4.43;;;;;;;23.99;35.88;99218.66;4368724;32;35041;-63
2023/11/21 07:06:17;;;;;;;9.90;4.82;;;;;;;23.96;36.45;99218.31;4361947;32;33650;-64
2023/11/21 07:08:45;;;;;;;8.43;4.30;;;;;;;23.92;36.93;99217.97;4361821;32;33931;-64
2023/11/21 07:11:13;;;;;;;8.90;4.40;;;;;;;23.91;37.40;99229.94;4361641;32;34326;-64
2023/11/21 07:13:41;;;;;;;11.25;4.97;;;;;;;23.88;37.62;99222.25;4362120;32;34905;-64
2023/11/21 07:16:09;;;;;;;9.43;4.37;;;;;;;23.87;37.73;99215.13;4361900;32;33466;-64
2023/11/21 07:18:36;;;;;;;6.37;4.20;;;;;;;23.86;37.87;99229.84;4361729;32;33869;-64
2023/11/21 07:21:04;;;;;;;11.07;4.50;;;;;;;23.84;37.99;99226.53;4361753;32;33737;-64
2023/11/21 07:23:31;;;;;;;10.68;4.43;;;;;;;23.82;38.08;99224.03;4361657;32;34164;-64
2023/11/21 07:25:59;;;;;;;8.48;4.25;;;;;;;23.83;38.15;99228.44;4361516;32;33807;-64
2023/11/21 07:28:27;;;;;;;8.30;4.43;;;;;;;23.82;38.20;99234.13;4361774;32;34392;-64
2023/11/21 07:30:54;;;;;;;9.77;4.47;;;;;;;23.82;38.25;99234.13;4361791;32;33896;-63
2023/11/21 07:33:22;;;;;;;8.55;4.50;;;;;;;23.82;38.28;99237.66;4359073;32;34315;-64
2023/11/21 07:35:49;;;;;;;8.95;4.10;;;;;;;23.84;38.31;99234.72;4346893;33;34550;-64
2023/11/21 07:38:17;;;;;;;10.85;4.37;;;;;;;23.83;38.35;99231.16;4346691;33;34856;-64
2023/11/21 07:40:45;;;;;;;8.60;4.68;;;;;;;23.83;38.38;99231.16;4346438;33;34202;-64
2023/11/21 07:43:12;;;;;;;8.68;4.30;;;;;;;23.84;38.39;99226.53;4346991;33;34106;-64
2023/11/21 07:45:40;;;;;;;7.18;4.50;;;;;;;23.85;38.43;99230.91;4347133;33;33654;-64
2023/11/21 07:48:10;;;;;;;7.50;4.20;;;;;;;23.85;38.47;99226.28;4346843;33;35000;-64
2023/11/21 07:50:38;;;;;;;8.55;4.03;;;;;;;23.86;38.49;99227.12;4344217;33;86097;-65
2023/11/21 07:53:05;;;;;;;7.62;3.90;;;;;;;23.88;38.52;99244.06;4346611;33;34590;-65
2023/11/21 07:55:33;;;;;;;7.45;3.97;;;;;;;23.87;38.57;99240.47;4346645;33;33755;-65
2023/11/21 07:58:01;;;;;;;10.38;4.07;;;;;;;23.87;38.58;99231.50;4346139;33;34029;-65
2023/11/21 08:00:30;;;;;;;7.70;4.15;;;;;;;23.87;38.61;99232.31;4346633;33;35158;-65
2023/11/21 08:02:58;;;;;;;;;;;;;;;23.88;38.65;99233.16;4347002;33;33960;-65
2023/11/21 08:05:25;;;;;;;9.50;4.18;;;;;;;23.98;38.49;99238.81;4346695;33;33475;-65
2023/11/21 08:08:04;;;;;;;6.90;3.70;;;;;;;23.91;38.65;99233.47;4346383;33;34002;-65
2023/11/21 08:10:31;;;;;;;7.35;4.20;;;;;;;23.89;38.71;99237.53;4346602;33;33793;-65
2023/11/21 08:12:58;;;;;;;6.15;3.58;;;;;;;23.88;38.76;99233.16;4346709;33;33852;-65
2023/11/21 08:15:26;;;;;;;10.10;4.22;;;;;;;23.89;38.78;99235.62;4346302;33;34433;-65
2023/11/21 08:17:54;;;;;;;11.60;4.65;;;;;;;23.90;38.78;99241.91;4346452;33;33725;-65
2023/11/21 08:20:22;;;;;;;7.75;4.35;;;;;;;23.90;38.77;99231.00;4346336;33;34874;-65
2023/11/21 08:22:51;;;;;;;7.30;3.65;;;;;;;23.90;38.78;99220.12;4346255;33;34156;-65
2023/11/21 08:25:20;;;;;;;6.47;3.90;;;;;;;23.90;38.78;99220.12;4348031;33;34244;-65
2023/11/21 08:27:48;;;;;;;7.43;4.18;;;;;;;23.91;38.80;99221.75;4348095;33;33679;-65
2023/11/21 08:30:16;;;;;;;7.87;3.95;;;;;;;23.91;38.78;99221.75;4348163;33;34705;-65
2023/11/21 08:32:44;;;;;;;9.20;3.75;;;;;;;23.90;38.76;99215.47;4348040;33;34358;-66
2023/11/21 08:35:12;;;;;;;6.87;4.00;;;;;;;23.90;38.75;99209.22;4348233;33;34422;-65
2023/11/21 08:37:40;;;;;;;6.95;4.10;;;;;;;23.91;38.76;99211.69;4348161;33;34063;-65
2023/11/21 08:40:09;;;;;;;7.80;4.15;;;;;;;23.91;38.73;99206.25;4347980;33;34663;-65
2023/11/21 08:42:37;;;;;;;7.53;3.70;;;;;;;23.91;38.73;99214.41;4348115;33;34092;-65
2023/11/21 08:45:08;;;;;;;7.70;4.40;;;;;;;23.92;38.69;99212.50;4348329;33;33816;-65
2023/11/21 08:47:36;;;;;;;7.55;3.92;;;;;;;23.92;38.67;99212.50;4348110;33;34051;-65
2023/11/21 08:50:06;;;;;;;5.97;3.47;;;;;;;23.92;38.67;99212.50;4347930;33;33774;-65
2023/11/21 08:52:34;;;;;;;7.25;3.58;;;;;;;23.92;38.66;99215.22;4347948;33;34521;-65
2023/11/21 08:55:02;;;;;;;6.62;3.80;;;;;;;23.92;38.65;99217.97;4348033;33;33541;-65
2023/11/21 08:57:30;;;;;;;6.37;3.87;;;;;;;23.91;38.64;99222.59;4322032;33;33245;-64
2023/11/21 08:59:57;;;;;;;11.43;4.43;;;;;;;23.92;38.66;99237.03;4347989;33;35013;-64
2023/11/21 09:02:28;;;;;;;8.13;3.55;;;;;;;23.91;38.65;99235.38;4352449;32;34646;-64
2023/11/21 09:04:55;;;;;;;10.15;4.00;;;;;;;23.91;38.66;99233.47;4354678;32;33776;-64
2023/11/21 09:07:23;;;;;;;8.00;3.92;;;;;;;23.92;38.65;99235.16;4359440;32;33965;-64
2023/11/21 09:09:50;;;;;;;7.35;4.00;;;;;;;23.93;38.68;99233.25;4359991;32;34923;-65
2023/11/21 09:12:19;;;;;;;9.55;4.47;;;;;;;23.92;38.66;99234.31;4362393;32;35023;-64
2023/11/21 09:14:47;;;;;;;9.97;4.27;;;;;;;23.92;38.64;99232.44;4362311;32;34413;-65
2023/11/21 09:17:15;;;;;;;8.45;4.28;;;;;;;23.94;38.63;99234.91;4362825;32;34701;-65
2023/11/21 09:19:49;;;;;;;7.05;3.78;;;;;;;23.93;38.65;99233.25;4362653;32;33590;-65
2023/11/21 09:22:17;;;;;;;8.07;4.20;;;;;;;23.93;38.63;99228.63;4362585;32;34986;-65
2023/11/21 09:24:45;;;;;;;6.05;3.37;;;;;;;23.93;38.62;99219.62;4345948;32;33919;-64
2023/11/21 09:27:12;;;;;;;7.43;4.25;;;;;;;23.94;38.64;99215.84;4356926;32;33909;-65
2023/11/21 09:29:40;;;;;;;6.85;3.60;;;;;;;23.94;38.63;99207.66;4362696;32;34050;-64
2023/11/21 09:32:08;;;;;;;8.73;3.80;;;;;;;23.94;38.62;99213.09;4349955;32;33799;-64
2023/11/21 09:34:38;;;;;;;6.70;3.90;;;;;;;23.95;38.63;99205.75;4358740;32;33435;-65
2023/11/21 09:37:06;;;;;;;5.47;3.42;;;;;;;23.94;38.62;99204.94;4347986;32;33927;-64
2023/11/21 09:39:39;;;;;;;9.23;3.80;;;;;;;23.95;38.61;99192.13;4362297;32;34081;-64
2023/11/21 09:42:17;;;;;;;6.57;3.92;;;;;;;23.93;38.62;99190.47;4336126;32;33684;-64
2023/11/21 09:45:04;;;;;;;6.62;4.18;;;;;;;23.94;38.61;99191.31;4347780;33;33805;-65
2023/11/21 09:47:32;;;;;;;13.32;7.15;;;;;;;23.96;38.59;99185.59;4347707;33;33760;-64
2023/11/21 09:50:00;;;;;;;12.30;7.45;;;;;;;23.89;35.18;99180.31;4334325;33;34717;-65
2023/11/21 09:52:28;;;;;;;12.85;6.82;;;;;;;23.75;32.90;99185.25;4326441;32;34169;-60
2023/11/21 09:55:00;;;;;;;14.07;7.28;;;;;;;23.62;33.44;99183.59;4362145;32;33660;-60
2023/11/21 09:57:28;;;;;;;17.02;7.50;;;;;;;23.59;34.73;99188.69;4362298;32;34000;-60
2023/11/21 09:59:58;;;;;;;13.70;6.05;;;;;;;23.57;35.37;99183.50;4362071;32;34138;-62
2023/11/21 10:02:29;;;;;;;10.48;5.72;;;;;;;23.60;35.37;99182.19;4351852;32;34846;-58
2023/11/21 10:04:59;;;;;;;13.70;5.37;;;;;;;23.70;35.54;99181.59;4347630;33;34462;-61
2023/11/21 10:07:28;;;;;;;11.15;5.70;;;;;;;23.83;35.69;99171.22;4345190;32;33571;-60
2023/11/21 10:09:56;;;;;;;11.73;5.32;;;;;;;23.98;35.73;99162.50;4348963;32;33644;-61
2023/11/21 10:12:25;;;;;;;8.75;5.50;;;;;;;24.14;35.76;99169.84;4348795;32;34392;-60
2023/11/21 10:14:53;;;;;;;12.70;5.68;;;;;;;24.27;35.78;99159.72;4349115;32;33805;-62
2023/11/21 10:17:20;;;;;;;8.80;5.20;;;;;;;24.42;35.75;99169.00;4347332;32;33944;-61
2023/11/21 10:19:48;;;;;;;10.60;5.32;;;;;;;24.56;35.73;99152.28;4348996;32;34999;-61
2023/11/21 10:22:16;;;;;;;9.32;5.45;;;;;;;24.68;35.71;99150.31;4337011;32;33283;-62
2023/11/21 10:24:43;;;;;;;7.93;5.25;;;;;;;24.83;35.66;99153.25;4362167;32;33456;-59
2023/11/21 10:27:20;;;;;;;7.75;4.60;;;;;;;24.95;35.61;99153.16;4348534;32;35004;-57
2023/11/21 10:29:47;;;;;;;8.85;4.97;;;;;;;25.09;35.54;99161.84;4335295;32;35003;-61
2023/11/21 10:32:15;;;;;;;7.18;4.68;;;;;;;25.21;35.52;99157.06;4347057;32;34949;-63
2023/11/21 10:34:55;;;;;;;8.35;4.90;;;;;;;25.31;35.46;99159.91;4361926;32;34700;-61
2023/11/21 10:37:24;;;;;;;7.35;4.57;;;;;;;25.44;35.38;99147.78;4348919;32;34527;-62
2023/11/21 10:39:55;;;;;;;7.85;4.35;;;;;;;25.50;35.36;99154.94;4362165;32;34096;-62
2023/11/21 10:42:24;;;;;;;8.88;4.65;;;;;;;25.58;35.33;99154.50;4345916;32;34294;-60
2023/11/21 10:44:52;;;;;;;7.57;4.22;;;;;;;25.66;35.31;99155.94;4347059;32;33640;-64
2023/11/21 10:47:20;;;;;;;8.23;4.85;;;;;;;25.73;35.28;99155.75;4348993;32;34738;-62
2023/11/21 10:49:48;;;;;;;9.13;4.03;;;;;;;25.81;35.21;99158.03;4348575;32;34123;-60
2023/11/21 10:52:19;;;;;;;8.73;4.03;;;;;;;25.88;35.16;99159.50;4361901;32;34767;-63
2023/11/21 10:54:46;;;;;;;;;;;;;;;25.94;35.15;99161.19;4355160;32;33625;-61
2023/11/21 10:57:17;;;;;;;8.95;4.62;;;;;;;26.12;34.93;99153.72;4348974;32;33554;-60
2023/11/21 10:59:49;;;;;;;7.95;4.25;;;;;;;26.06;35.07;99166.47;4361986;32;33917;-62
2023/11/21 11:02:27;;;;;;;6.87;3.97;;;;;;;26.06;35.11;99160.19;4358701;32;34124;-57
2023/11/21 11:04:56;;;;;;;6.68;4.30;;;;;;;26.09;35.08;99146.84;4337614;33;33600;-64
2023/11/21 11:07:26;;;;;;;8.18;4.15;;;;;;;26.10;35.08;99147.66;4351708;32;33539;-64
2023/11/21 11:09:54;;;;;;;;;;;;;;;26.08;35.11;99147.94;4353459;32;34813;-62
2023/11/21 11:12:21;;;;;;;6.93;3.87;;;;;;;26.20;34.93;99148.56;4348069;32;35039;-60
2023/11/21 11:14:52;;;;;;;6.75;4.57;;;;;;;26.12;35.04;99146.31;4351066;32;33353;-64
2023/11/21 11:17:20;;;;;;;7.22;3.80;;;;;;;26.06;35.14;99146.53;4358445;32;34040;-59
2023/11/21 11:19:48;;;;;;;7.70;4.03;;;;;;;26.03;35.20;99150.62;4351504;32;34154;-64
2023/11/21 11:23:05;;;;;;;6.60;4.00;;;;;;;26.03;35.23;99142.41;4358911;32;34033;-62
2023/11/21 11:25:59;;;;;;;8.63;3.72;;;;;;;26.03;35.24;99145.16;4346864;32;33265;-60
2023/11/21 11:28:29;;;;;;;7.65;4.20;;;;;;;25.99;35.29;99145.94;4344114;33;34890;-62
2023/11/21 11:31:03;;;;;;;7.37;4.12;;;;;;;25.93;35.40;99150.53;4321774;32;34162;-61
2023/11/21 11:33:34;;;;;;;7.25;4.25;;;;;;;25.90;35.43;99143.66;4344387;33;34861;-61
2023/11/21 11:36:26;;;;;;;7.82;4.00;;;;;;;25.86;35.50;99133.50;4334617;32;33851;-63
2023/11/21 11:38:55;;;;;;;7.47;4.32;;;;;;;25.83;35.59;99136.75;4324119;33;34046;-63